Time;durP1;ratioP1;P1;durP2;ratioP2;P2;SDS_P1;SDS_P2;PMS_P1;PMS_P2;Temp;Humidity;BMP_temperature;BMP_pressure;BME280_temperature;BME280_humidity;BME280_pressure;Samples;Min_cycle;Max_cycle;Signal;HPM_P1;HPM_P2
2022/12/31 00:01:22;;;;;;;0.43;0.43;;;13.90;99.90;;;;;;5052222;28;20224;-45
2022/12/31 00:03:48;;;;;;;0.32;0.32;;;14.00;99.90;;;;;;5052454;28;20690;-46
2022/12/31 00:06:15;;;;;;;0.38;0.38;;;13.90;99.90;;;;;;5051046;28;20708;-45
2022/12/31 00:08:40;;;;;;;0.77;0.50;;;13.90;99.90;;;;;;5052723;28;20173;-46
2022/12/31 00:11:06;;;;;;;3.95;0.52;;;13.90;99.90;;;;;;5053097;28;20551;-46
2022/12/31 00:13:32;;;;;;;1.70;0.80;;;13.80;99.90;;;;;;5052582;28;20166;-47
2022/12/31 00:16:18;;;;;;;1.23;0.98;;;13.90;99.90;;;;;;5052487;28;20165;-47
2022/12/31 00:18:46;;;;;;;7.32;1.85;;;13.90;99.90;;;;;;5052521;28;20250;-46
2022/12/31 00:21:12;;;;;;;2.40;1.30;;;13.80;99.90;;;;;;5052448;28;20171;-46
2022/12/31 00:23:38;;;;;;;2.67;1.70;;;13.80;99.90;;;;;;5052393;28;20245;-46
2022/12/31 00:26:05;;;;;;;7.75;5.93;;;13.70;99.90;;;;;;5052674;28;20170;-46
2022/12/31 00:28:32;;;;;;;8.13;4.90;;;13.70;99.90;;;;;;5052225;28;20733;-46
2022/12/31 00:31:22;;;;;;;0.95;0.95;;;13.70;99.90;;;;;;5052291;28;20745;-46
2022/12/31 00:33:48;;;;;;;1.08;0.70;;;13.60;99.90;;;;;;5052208;28;20170;-44
2022/12/31 00:36:18;;;;;;;3.38;1.98;;;13.60;99.90;;;;;;5052246;28;20631;-45
2022/12/31 00:38:46;;;;;;;7.78;2.17;;;13.60;99.90;;;;;;5052192;28;20695;-45
2022/12/31 00:41:12;;;;;;;4.78;1.90;;;13.70;99.90;;;;;;5052051;28;20650;-45
2022/12/31 00:43:38;;;;;;;3.63;1.90;;;13.70;99.90;;;;;;5051861;28;20195;-45
2022/12/31 00:46:06;;;;;;;1.67;1.10;;;13.80;99.90;;;;;;5051064;28;20178;-45
2022/12/31 00:48:33;;;;;;;1.75;1.38;;;13.80;99.90;;;;;;5051910;28;20166;-45
2022/12/31 00:51:00;;;;;;;2.55;1.50;;;13.80;99.90;;;;;;5051335;28;20170;-46
2022/12/31 00:53:25;;;;;;;3.25;1.42;;;13.80;99.90;;;;;;5051674;28;20261;-46
2022/12/31 00:55:52;;;;;;;2.03;1.45;;;13.90;99.90;;;;;;5051192;28;20665;-45
2022/12/31 00:58:17;;;;;;;3.63;1.70;;;13.90;99.90;;;;;;5051520;28;20163;-45
2022/12/31 01:00:43;;;;;;;3.22;1.65;;;14.00;99.90;;;;;;5051601;28;20169;-45
2022/12/31 01:03:09;;;;;;;7.35;1.90;;;14.00;99.90;;;;;;5051442;28;20701;-45
2022/12/31 01:05:35;;;;;;;2.75;1.45;;;13.90;99.90;;;;;;5050490;28;20174;-46
2022/12/31 01:08:01;;;;;;;3.90;1.75;;;14.00;99.90;;;;;;5051412;28;20171;-45
2022/12/31 01:13:12;;;;;;;1.58;1.00;;;14.10;99.90;;;;;;5051918;28;20232;-45
2022/12/31 01:15:38;;;;;;;2.67;1.20;;;14.10;99.90;;;;;;5052004;28;20170;-45
2022/12/31 01:18:06;;;;;;;2.40;0.80;;;14.20;99.90;;;;;;5052075;28;20163;-45
2022/12/31 01:20:38;;;;;;;6.28;1.40;;;14.20;99.90;;;;;;5051543;28;20170;-45
2022/12/31 01:23:04;;;;;;;2.63;0.88;;;14.30;99.90;;;;;;5051884;28;20213;-45
2022/12/31 01:25:29;;;;;;;0.50;0.30;;;15.80;99.90;;;;;;5051525;28;20182;-44
2022/12/31 01:27:55;;;;;;;0.32;0.32;;;14.40;99.90;;;;;;5051568;28;20288;-45
2022/12/31 01:30:20;;;;;;;0.50;0.50;;;14.50;99.90;;;;;;5051474;28;20173;-45
2022/12/31 01:32:46;;;;;;;1.58;0.70;;;14.60;99.90;;;;;;5051469;28;20646;-45
2022/12/31 01:35:11;;;;;;;0.73;0.30;;;14.70;99.90;;;;;;5051413;28;20178;-45
2022/12/31 01:37:37;;;;;;;1.00;0.90;;;14.90;99.90;;;;;;5050489;28;20163;-45
2022/12/31 01:40:03;;;;;;;0.57;0.30;;;15.00;99.90;;;;;;5051988;28;20181;-45
2022/12/31 01:42:29;;;;;;;0.20;0.20;;;15.10;99.90;;;;;;5051874;28;20530;-45
2022/12/31 01:44:55;;;;;;;0.20;0.17;;;15.20;99.90;;;;;;5050735;28;20213;-45
2022/12/31 01:47:34;;;;;;;1.45;0.10;;;15.10;99.90;;;;;;5051391;28;20173;-45
2022/12/31 01:50:16;;;;;;;1.40;0.22;;;15.20;99.90;;;;;;5051294;28;20167;-45
2022/12/31 01:52:47;;;;;;;0.40;0.35;;;15.20;99.90;;;;;;5051313;28;20257;-45
2022/12/31 01:55:18;;;;;;;0.25;0.25;;;15.10;99.90;;;;;;5051231;28;20167;-45
2022/12/31 01:57:46;;;;;;;0.40;0.40;;;15.20;99.90;;;;;;5051467;28;20173;-45
2022/12/31 02:00:13;;;;;;;1.75;0.38;;;15.40;99.90;;;;;;5051171;28;20214;-45
2022/12/31 02:02:38;;;;;;;0.40;0.35;;;15.30;99.90;;;;;;5051050;28;20222;-45
2022/12/31 02:05:12;;;;;;;0.10;0.10;;;15.40;99.90;;;;;;5051724;28;20185;-45
2022/12/31 02:07:38;;;;;;;0.55;0.15;;;15.30;99.90;;;;;;5053662;28;20174;-45
2022/12/31 02:10:04;;;;;;;0.57;0.50;;;15.30;99.90;;;;;;5055310;28;20662;-45
2022/12/31 02:12:30;;;;;;;0.45;0.28;;;15.20;99.90;;;;;;5054878;28;20258;-45
2022/12/31 02:14:56;;;;;;;0.25;0.20;;;15.20;99.90;;;;;;5054772;28;20174;-45
2022/12/31 02:17:39;;;;;;;1.55;0.25;;;15.10;99.90;;;;;;5054810;28;20170;-45
2022/12/31 02:20:42;;;;;;;0.30;0.30;;;15.50;99.90;;;;;;5054764;28;20561;-45
2022/12/31 02:23:23;;;;;;;0.20;0.20;;;15.30;99.90;;;;;;5054677;28;20613;-44
2022/12/31 02:26:01;;;;;;;0.10;0.10;;;15.50;99.90;;;;;;5054898;28;20185;-45
2022/12/31 02:28:40;;;;;;;0.00;0.00;;;15.40;99.90;;;;;;5054579;28;20194;-45
2022/12/31 02:31:15;;;;;;;0.08;0.00;;;15.40;99.90;;;;;;5054913;28;20171;-46
2022/12/31 02:33:48;;;;;;;0.10;0.10;;;15.50;99.90;;;;;;5054527;28;20502;-47
2022/12/31 02:36:19;;;;;;;0.10;0.10;;;15.60;99.90;;;;;;5054393;28;20163;-47
2022/12/31 02:38:47;;;;;;;0.10;0.10;;;15.60;99.90;;;;;;5054369;28;20664;-45
2022/12/31 02:41:48;;;;;;;0.75;0.10;;;15.60;99.90;;;;;;5054595;28;20540;-46
2022/12/31 02:44:22;;;;;;;0.00;0.00;;;15.60;99.90;;;;;;5054103;28;20206;-45
2022/12/31 02:47:09;;;;;;;0.15;0.08;;;15.70;99.90;;;;;;5054224;28;20166;-46
2022/12/31 02:49:53;;;;;;;0.10;0.10;;;15.60;99.90;;;;;;5054539;28;20198;-45
2022/12/31 02:52:52;;;;;;;1.95;0.10;;;15.70;99.90;;;;;;5054200;28;20162;-45
2022/12/31 02:55:29;;;;;;;0.95;0.20;;;15.70;99.90;;;;;;5054079;28;20166;-45
2022/12/31 02:58:13;;;;;;;1.50;0.38;;;15.80;99.90;;;;;;5054036;28;20177;-45
2022/12/31 03:03:35;;;;;;;1.65;0.65;;;15.80;99.90;;;;;;5054192;28;20283;-47
2022/12/31 03:06:03;;;;;;;0.13;0.13;;;15.80;99.90;;;;;;5053934;28;20169;-45
2022/12/31 03:08:28;;;;;;;0.82;0.60;;;15.80;99.90;;;;;;5053795;28;20169;-45
2022/12/31 03:10:56;;;;;;;1.58;0.28;;;15.80;99.90;;;;;;5053816;28;20183;-46
2022/12/31 03:13:23;;;;;;;0.30;0.30;;;15.80;99.90;;;;;;5053668;28;20634;-46
2022/12/31 03:15:48;;;;;;;0.35;0.10;;;15.70;99.90;;;;;;5053680;28;20281;-46
2022/12/31 03:18:17;;;;;;;0.88;0.40;;;15.90;99.90;;;;;;5053107;28;20175;-46
2022/12/31 03:23:39;;;;;;;0.40;0.30;;;15.90;99.90;;;;;;5054099;28;20221;-47
2022/12/31 03:26:10;;;;;;;0.30;0.20;;;15.70;99.90;;;;;;5053848;28;20163;-46
2022/12/31 03:28:37;;;;;;;0.30;0.30;;;15.70;99.90;;;;;;5054141;28;20292;-45
2022/12/31 03:31:03;;;;;;;0.73;0.22;;;15.70;99.90;;;;;;5052690;28;20167;-45
2022/12/31 03:33:35;;;;;;;0.22;0.22;;;15.70;99.90;;;;;;5053448;28;20643;-45
2022/12/31 03:36:09;;;;;;;3.38;1.48;;;15.70;99.90;;;;;;5053437;28;20182;-44
2022/12/31 03:38:35;;;;;;;0.77;0.50;;;15.60;99.90;;;;;;5053657;28;20178;-45
2022/12/31 03:41:01;;;;;;;1.30;0.80;;;15.50;99.90;;;;;;5053198;28;20159;-45
2022/12/31 03:43:26;;;;;;;0.65;0.40;;;15.50;99.90;;;;;;5053112;28;20230;-45
2022/12/31 03:45:53;;;;;;;0.20;0.17;;;15.50;99.90;;;;;;5053090;28;20258;-45
2022/12/31 03:48:21;;;;;;;0.75;0.73;;;15.50;99.90;;;;;;5053264;28;20179;-45
2022/12/31 03:50:47;;;;;;;0.30;0.30;;;15.50;99.90;;;;;;5052994;28;20228;-44
2022/12/31 03:53:13;;;;;;;4.97;0.70;;;15.50;99.90;;;;;;5053078;28;20175;-44
2022/12/31 03:55:39;;;;;;;0.35;0.35;;;15.50;99.90;;;;;;5052856;28;20224;-45
2022/12/31 03:58:04;;;;;;;0.55;0.50;;;15.60;99.90;;;;;;5053248;28;20631;-44
2022/12/31 04:00:30;;;;;;;0.60;0.20;;;15.50;99.90;;;;;;5052845;28;20194;-45
2022/12/31 04:02:56;;;;;;;0.10;0.10;;;15.50;99.90;;;;;;5052602;28;20699;-45
2022/12/31 04:05:22;;;;;;;0.30;0.30;;;15.60;99.90;;;;;;5052767;28;20651;-45
2022/12/31 04:07:48;;;;;;;1.80;0.55;;;15.70;99.90;;;;;;5052746;28;20170;-45
2022/12/31 04:10:16;;;;;;;0.20;0.20;;;15.60;99.90;;;;;;5052668;28;20171;-45
2022/12/31 04:12:42;;;;;;;0.88;0.60;;;15.70;99.90;;;;;;5051238;28;20175;-45
2022/12/31 04:15:10;;;;;;;0.35;0.35;;;15.70;99.90;;;;;;5052818;28;20524;-45
2022/12/31 04:17:35;;;;;;;2.17;0.52;;;15.70;99.90;;;;;;5052572;28;20166;-45
2022/12/31 04:20:02;;;;;;;0.70;0.47;;;15.70;99.90;;;;;;5052510;28;20518;-44
2022/12/31 04:22:28;;;;;;;1.25;0.60;;;15.60;99.90;;;;;;5052718;28;20171;-44
2022/12/31 04:24:53;;;;;;;0.70;0.70;;;15.60;99.90;;;;;;5052286;28;20284;-45
2022/12/31 04:27:19;;;;;;;1.25;0.35;;;15.60;99.90;;;;;;5052322;28;20569;-45
2022/12/31 04:29:44;;;;;;;0.80;0.63;;;15.60;99.90;;;;;;5051407;28;20526;-45
2022/12/31 04:32:10;;;;;;;0.20;0.20;;;15.80;99.90;;;;;;5052448;28;20521;-45
2022/12/31 04:34:36;;;;;;;0.63;0.20;;;15.70;99.90;;;;;;5052503;28;20167;-45
2022/12/31 04:37:02;;;;;;;1.38;0.40;;;15.80;99.90;;;;;;5052117;28;20177;-44
2022/12/31 04:39:27;;;;;;;1.35;0.45;;;15.80;99.90;;;;;;5052135;28;20159;-45
2022/12/31 04:41:53;;;;;;;1.85;0.60;;;15.90;99.90;;;;;;5052026;28;20178;-44
2022/12/31 04:44:19;;;;;;;0.20;0.20;;;15.80;99.90;;;;;;5052140;28;20206;-45
2022/12/31 04:46:45;;;;;;;0.70;0.68;;;15.90;99.90;;;;;;5052052;28;20523;-45
2022/12/31 04:49:11;;;;;;;0.22;0.22;;;15.90;99.90;;;;;;5052165;28;20248;-44
2022/12/31 04:51:37;;;;;;;0.22;0.22;;;15.90;99.90;;;;;;5052250;28;20645;-45
2022/12/31 04:54:03;;;;;;;0.13;0.13;;;16.00;99.90;;;;;;5051006;28;20182;-44
2022/12/31 04:56:29;;;;;;;0.50;0.40;;;15.90;99.90;;;;;;5051872;28;20541;-45
2022/12/31 04:58:55;;;;;;;0.22;0.22;;;15.90;99.90;;;;;;5052091;28;20174;-44
2022/12/31 05:01:21;;;;;;;2.72;0.75;;;16.10;99.90;;;;;;5051850;28;20163;-45
2022/12/31 05:03:47;;;;;;;0.95;0.45;;;15.90;99.90;;;;;;5051538;28;20284;-44
2022/12/31 05:06:15;;;;;;;2.38;0.50;;;16.00;99.90;;;;;;5052032;28;20627;-44
2022/12/31 05:08:41;;;;;;;0.45;0.30;;;16.00;99.90;;;;;;5051783;28;20201;-44
2022/12/31 05:11:07;;;;;;;1.10;0.68;;;15.90;99.90;;;;;;5051686;28;20200;-45
2022/12/31 05:13:33;;;;;;;1.83;0.50;;;16.00;99.90;;;;;;5052027;28;20237;-45
2022/12/31 05:16:00;;;;;;;0.52;0.50;;;16.00;99.90;;;;;;5051792;28;20185;-44
2022/12/31 05:18:25;;;;;;;1.20;0.38;;;16.20;99.90;;;;;;5051827;28;20219;-44
2022/12/31 05:20:51;;;;;;;0.60;0.43;;;16.10;99.90;;;;;;5051583;28;20250;-45
2022/12/31 05:23:17;;;;;;;0.28;0.28;;;16.10;99.90;;;;;;5051464;28;20740;-45
2022/12/31 05:25:44;;;;;;;1.48;0.50;;;16.00;99.90;;;;;;5051524;28;20174;-44
2022/12/31 05:28:10;;;;;;;1.45;0.43;;;16.00;99.90;;;;;;5051559;28;20216;-45
2022/12/31 05:30:36;;;;;;;0.68;0.40;;;16.10;99.90;;;;;;5051964;28;20174;-45
2022/12/31 05:33:02;;;;;;;0.95;0.47;;;16.10;99.90;;;;;;5051830;28;20167;-44
2022/12/31 05:35:27;;;;;;;3.65;0.98;;;16.10;99.90;;;;;;5051435;28;20171;-44
2022/12/31 05:37:53;;;;;;;3.35;0.65;;;16.00;99.90;;;;;;5051341;28;20232;-45
2022/12/31 05:40:19;;;;;;;1.00;0.70;;;15.90;99.90;;;;;;5050716;28;20181;-45
2022/12/31 05:42:44;;;;;;;0.43;0.43;;;15.90;99.90;;;;;;5055636;28;20670;-44
2022/12/31 05:45:12;;;;;;;1.52;0.98;;;15.90;99.90;;;;;;5055412;28;20178;-44
2022/12/31 05:47:39;;;;;;;3.38;1.48;;;15.90;99.90;;;;;;5055571;28;20182;-44
2022/12/31 05:50:06;;;;;;;1.48;0.65;;;15.90;99.90;;;;;;5055791;28;20261;-44
2022/12/31 05:52:31;;;;;;;1.20;0.52;;;15.80;99.90;;;;;;5055666;28;20175;-45
2022/12/31 05:54:57;;;;;;;4.78;0.80;;;15.80;99.90;;;;;;5055038;28;20225;-45
2022/12/31 05:57:23;;;;;;;1.48;0.80;;;15.80;99.90;;;;;;5054939;28;20224;-45
2022/12/31 05:59:48;;;;;;;0.93;0.60;;;15.80;99.90;;;;;;5055180;28;20178;-45
2022/12/31 06:02:14;;;;;;;0.73;0.50;;;15.80;99.90;;;;;;5055027;28;20237;-46
2022/12/31 06:04:39;;;;;;;0.85;0.47;;;15.90;99.90;;;;;;5054974;28;20263;-46
2022/12/31 06:07:05;;;;;;;4.93;0.90;;;15.90;99.90;;;;;;5055343;28;20174;-45
2022/12/31 06:09:30;;;;;;;1.27;0.93;;;15.90;99.90;;;;;;5054877;28;20171;-46
2022/12/31 06:11:56;;;;;;;1.73;0.50;;;15.90;99.90;;;;;;5054872;28;20192;-46
2022/12/31 06:14:21;;;;;;;3.10;0.77;;;16.00;99.90;;;;;;5054773;28;20248;-46
2022/12/31 06:16:47;;;;;;;2.03;0.90;;;16.00;99.90;;;;;;5055034;28;20528;-45
2022/12/31 06:19:12;;;;;;;0.88;0.35;;;16.00;99.90;;;;;;5054812;28;20554;-45
2022/12/31 06:21:38;;;;;;;3.63;1.00;;;16.00;99.90;;;;;;5054701;28;20262;-46
2022/12/31 06:24:04;;;;;;;3.03;0.88;;;16.10;99.90;;;;;;5055189;28;20229;-46
2022/12/31 06:26:29;;;;;;;3.17;0.57;;;16.10;99.90;;;;;;5054625;28;20182;-52
2022/12/31 06:28:55;;;;;;;1.50;0.50;;;16.20;99.90;;;;;;5054554;28;20576;-44
2022/12/31 06:31:20;;;;;;;2.22;0.70;;;16.20;99.90;;;;;;5054526;28;20630;-45
2022/12/31 06:33:46;;;;;;;2.10;1.02;;;16.20;99.90;;;;;;5054468;28;20614;-45
2022/12/31 06:36:14;;;;;;;1.52;0.65;;;16.20;99.90;;;;;;5054468;28;20163;-45
2022/12/31 06:38:41;;;;;;;1.65;1.02;;;16.30;99.90;;;;;;5054359;28;20223;-45
2022/12/31 06:41:09;;;;;;;2.30;1.52;;;16.20;99.90;;;;;;5054397;28;20163;-45
2022/12/31 06:43:35;;;;;;;2.25;0.88;;;16.20;99.90;;;;;;5054826;28;20199;-45
2022/12/31 06:46:02;;;;;;;0.88;0.75;;;16.10;99.90;;;;;;5054257;28;20166;-44
2022/12/31 06:48:27;;;;;;;1.55;0.77;;;16.00;99.90;;;;;;5054198;28;20185;-44
2022/12/31 06:50:53;;;;;;;0.60;0.52;;;16.10;99.90;;;;;;5054367;28;20638;-44
2022/12/31 06:53:19;;;;;;;1.05;0.95;;;16.10;99.90;;;;;;5053219;28;20639;-45
2022/12/31 06:55:44;;;;;;;1.63;1.08;;;16.20;99.90;;;;;;5053669;28;20178;-44
2022/12/31 06:58:14;;;;;;;0.50;0.50;;;16.20;99.90;;;;;;5054226;28;20166;-45
2022/12/31 07:00:59;;;;;;;4.28;0.80;;;16.20;99.90;;;;;;5054009;28;20213;-44
2022/12/31 07:03:51;;;;;;;1.67;0.60;;;16.10;99.90;;;;;;5053669;28;20221;-44
2022/12/31 07:06:29;;;;;;;1.17;1.00;;;16.10;99.90;;;;;;5053896;28;20224;-45
2022/12/31 07:09:06;;;;;;;1.73;0.75;;;16.10;99.90;;;;;;5053926;28;20155;-45
2022/12/31 07:11:45;;;;;;;1.92;1.00;;;16.20;99.90;;;;;;5054236;28;20166;-45
2022/12/31 07:14:48;;;;;;;5.40;1.05;;;16.20;99.90;;;;;;5053697;28;20194;-45
2022/12/31 07:17:13;;;;;;;2.20;0.73;;;16.30;99.90;;;;;;5053672;28;20162;-45
2022/12/31 07:20:06;;;;;;;1.33;0.98;;;16.20;99.90;;;;;;5053653;28;20167;-44
2022/12/31 07:22:32;;;;;;;3.60;1.10;;;16.30;99.90;;;;;;5053755;28;20257;-45
2022/12/31 07:24:57;;;;;;;0.85;0.85;;;16.30;99.90;;;;;;5053509;28;20289;-44
2022/12/31 07:27:35;;;;;;;1.55;0.70;;;16.30;99.90;;;;;;5053465;28;20696;-45
2022/12/31 07:30:06;;;;;;;1.27;0.80;;;16.40;99.90;;;;;;5053350;28;20167;-44
2022/12/31 07:32:40;;;;;;;2.60;0.95;;;16.40;99.90;;;;;;5053707;28;20627;-45
2022/12/31 07:35:19;;;;;;;1.13;0.70;;;16.40;99.90;;;;;;5053780;28;20171;-45
2022/12/31 07:38:11;;;;;;;6.43;1.10;;;16.40;99.90;;;;;;5053303;28;20162;-44
2022/12/31 07:41:00;;;;;;;5.03;0.80;;;16.30;99.90;;;;;;5052866;28;20169;-44
2022/12/31 07:43:51;;;;;;;1.42;0.80;;;16.30;99.90;;;;;;5042845;28;20214;-44
2022/12/31 07:46:43;;;;;;;4.38;1.33;;;16.40;99.90;;;;;;5052853;28;20159;-44
2022/12/31 07:49:11;;;;;;;0.80;0.77;;;16.30;99.90;;;;;;5052887;28;20531;-45
2022/12/31 07:51:37;;;;;;;0.70;0.65;;;16.40;99.90;;;;;;5053052;28;20179;-44
2022/12/31 07:54:03;;;;;;;3.65;0.85;;;16.50;99.90;;;;;;5053148;28;20206;-45
2022/12/31 07:56:29;;;;;;;1.90;1.10;;;16.50;99.90;;;;;;5052946;28;20171;-46
2022/12/31 07:59:25;;;;;;;2.40;0.88;;;16.40;99.90;;;;;;5053152;28;20170;-44
2022/12/31 08:02:03;;;;;;;2.40;1.77;;;16.50;99.90;;;;;;5052720;28;20218;-44
2022/12/31 08:04:47;;;;;;;3.80;1.35;;;16.40;99.90;;;;;;5052836;28;20567;-45
2022/12/31 08:07:24;;;;;;;1.48;1.00;;;16.40;99.90;;;;;;5052744;28;20159;-44
2022/12/31 08:10:08;;;;;;;1.95;1.08;;;16.40;99.90;;;;;;5052206;28;20174;-44
2022/12/31 08:12:36;;;;;;;1.48;0.93;;;16.40;99.90;;;;;;5052975;28;20185;-44
2022/12/31 08:15:14;;;;;;;4.38;1.10;;;16.40;99.90;;;;;;5052870;28;20167;-45
2022/12/31 08:17:41;;;;;;;1.88;1.00;;;16.50;99.90;;;;;;5052340;28;20195;-44
2022/12/31 08:20:10;;;;;;;4.53;1.20;;;16.50;99.90;;;;;;5053043;28;20193;-44
2022/12/31 08:22:51;;;;;;;2.03;0.90;;;16.50;99.90;;;;;;5052771;28;20166;-44
2022/12/31 08:25:48;;;;;;;6.30;1.13;;;16.50;99.90;;;;;;5052360;28;20182;-44
2022/12/31 08:29:18;;;;;;;2.25;1.15;;;16.50;99.90;;;;;;5050383;28;20297;-44
2022/12/31 08:31:52;;;;;;;3.00;0.98;;;16.50;99.90;;;;;;4966107;28;20674;-44
2022/12/31 08:34:42;;;;;;;5.75;1.13;;;16.50;99.90;;;;;;5043183;28;20277;-44
2022/12/31 08:37:24;;;;;;;4.35;1.15;;;16.50;99.90;;;;;;5052072;28;20167;-44
2022/12/31 08:39:55;;;;;;;2.75;1.15;;;16.50;99.90;;;;;;5052211;28;20248;-44
2022/12/31 08:42:31;;;;;;;2.15;1.52;;;16.50;99.90;;;;;;5052141;28;20163;-44
2022/12/31 08:45:06;;;;;;;1.05;0.75;;;16.60;99.90;;;;;;5052069;28;20205;-44
2022/12/31 08:48:00;;;;;;;5.13;1.50;;;16.70;99.90;;;;;;5051138;28;20182;-44
2022/12/31 08:50:26;;;;;;;1.45;1.33;;;16.60;99.90;;;;;;5052019;28;20170;-45
2022/12/31 08:52:52;;;;;;;2.13;0.95;;;16.60;99.90;;;;;;5052221;28;20171;-45
2022/12/31 08:55:19;;;;;;;1.10;0.90;;;16.80;99.90;;;;;;5051727;28;20576;-44
2022/12/31 08:57:56;;;;;;;2.75;1.17;;;16.90;99.90;;;;;;5051942;28;20254;-45
2022/12/31 09:00:22;;;;;;;1.73;1.10;;;16.90;99.90;;;;;;5051476;28;20163;-44
2022/12/31 09:03:01;;;;;;;3.78;1.40;;;16.80;99.90;;;;;;5051244;28;20748;-44
2022/12/31 09:05:51;;;;;;;1.90;0.80;;;16.80;99.90;;;;;;5051667;28;20175;-45
2022/12/31 09:08:43;;;;;;;1.45;0.57;;;16.80;99.90;;;;;;5051723;28;20441;-44
2022/12/31 09:11:30;;;;;;;0.98;0.80;;;16.70;99.90;;;;;;5051877;28;20250;-44
2022/12/31 09:14:12;;;;;;;4.65;1.00;;;16.80;99.90;;;;;;5051517;28;20275;-44
2022/12/31 09:17:00;;;;;;;1.13;0.85;;;16.90;99.90;;;;;;5051209;28;20181;-44
2022/12/31 09:19:26;;;;;;;3.67;1.65;;;16.90;99.90;;;;;;5031790;28;20208;-43
2022/12/31 09:21:52;;;;;;;1.08;0.93;;;16.80;99.90;;;;;;5051268;28;20173;-44
2022/12/31 09:24:18;;;;;;;9.45;3.08;;;16.90;99.90;;;;;;5051450;28;20217;-44
2022/12/31 09:27:02;;;;;;;0.77;0.77;;;17.00;99.90;;;;;;5051764;28;20169;-44
2022/12/31 09:29:45;;;;;;;3.20;0.98;;;17.10;99.90;;;;;;5051166;28;20173;-45
2022/12/31 09:32:18;;;;;;;3.15;1.00;;;17.00;99.90;;;;;;5051184;28;20166;-45
2022/12/31 09:35:21;;;;;;;2.35;1.10;;;17.10;99.90;;;;;;5051469;28;20166;-44
2022/12/31 09:37:50;;;;;;;3.72;1.33;;;17.10;99.90;;;;;;5051394;28;20340;-44
2022/12/31 09:40:39;;;;;;;4.80;1.60;;;17.10;99.90;;;;;;5051476;28;20673;-44
2022/12/31 09:43:49;;;;;;;2.13;0.77;;;17.10;99.90;;;;;;5051911;28;20174;-44
2022/12/31 09:46:18;;;;;;;1.05;0.70;;;17.20;99.90;;;;;;5051400;28;20175;-44
2022/12/31 09:49:05;;;;;;;3.97;0.95;;;17.10;99.90;;;;;;5051379;28;20162;-45
2022/12/31 09:51:41;;;;;;;1.92;0.93;;;17.10;99.90;;;;;;5051265;28;20173;-45
2022/12/31 09:54:25;;;;;;;1.60;0.82;;;17.10;99.90;;;;;;5051477;28;20162;-45
2022/12/31 09:57:16;;;;;;;1.67;0.95;;;17.10;99.90;;;;;;5051801;28;20171;-44
2022/12/31 09:59:47;;;;;;;3.60;1.55;;;18.30;99.90;;;;;;5051134;28;20259;-45
2022/12/31 10:02:44;;;;;;;4.10;1.40;;;17.10;99.90;;;;;;5049786;28;20210;-45
2022/12/31 10:05:27;;;;;;;1.58;1.00;;;17.20;99.90;;;;;;5051044;28;20198;-45
2022/12/31 10:08:04;;;;;;;1.77;1.10;;;17.20;99.90;;;;;;5051231;28;20170;-46
2022/12/31 10:10:39;;;;;;;3.05;0.85;;;17.20;99.90;;;;;;5051115;28;20170;-45
2022/12/31 10:13:15;;;;;;;3.60;1.13;;;17.20;99.90;;;;;;5051462;28;20170;-46
2022/12/31 10:16:04;;;;;;;7.47;1.23;;;17.20;99.90;;;;;;5051164;28;20159;-44
2022/12/31 10:19:03;;;;;;;2.63;0.90;;;17.20;99.90;;;;;;5051044;28;20159;-46
2022/12/31 10:21:47;;;;;;;3.65;1.33;;;17.20;99.90;;;;;;5047391;28;20175;-45
2022/12/31 10:24:31;;;;;;;3.63;1.02;;;17.10;99.90;;;;;;5047959;28;20221;-47
2022/12/31 10:27:43;;;;;;;3.08;1.10;;;17.20;99.90;;;;;;5049213;28;20578;-46
2022/12/31 10:30:16;;;;;;;3.40;0.95;;;17.20;99.90;;;;;;5052951;28;20170;-46
2022/12/31 10:33:15;;;;;;;4.22;1.33;;;17.20;99.90;;;;;;5052881;28;20178;-43
2022/12/31 10:36:06;;;;;;;6.97;1.35;;;17.20;99.90;;;;;;5053035;28;20595;-45
2022/12/31 10:39:03;;;;;;;3.05;1.42;;;17.20;99.90;;;;;;5052927;28;20163;-46
2022/12/31 10:42:10;;;;;;;3.42;0.95;;;17.30;99.90;;;;;;5052511;28;20186;-46
2022/12/31 10:45:15;;;;;;;2.70;1.27;;;17.20;99.90;;;;;;5052651;28;20210;-46
2022/12/31 10:48:02;;;;;;;1.65;0.90;;;17.20;99.90;;;;;;5052273;28;20174;-47
2022/12/31 10:50:37;;;;;;;3.55;0.90;;;17.60;99.90;;;;;;5052328;28;20208;-46
2022/12/31 10:53:23;;;;;;;5.80;1.63;;;17.20;99.90;;;;;;5052363;28;20705;-45
2022/12/31 10:56:11;;;;;;;2.88;1.05;;;17.30;99.90;;;;;;5052483;28;20664;-45
2022/12/31 10:59:06;;;;;;;3.42;1.10;;;17.30;99.90;;;;;;5052258;28;20654;-45
2022/12/31 11:02:06;;;;;;;2.83;1.20;;;17.30;99.90;;;;;;5047276;28;20222;-46
2022/12/31 11:04:47;;;;;;;4.07;1.63;;;17.30;99.90;;;;;;5052208;28;20214;-45
2022/12/31 11:07:34;;;;;;;3.72;1.27;;;17.30;99.90;;;;;;5052122;28;20158;-45
2022/12/31 11:10:11;;;;;;;1.85;0.85;;;17.30;99.90;;;;;;5052126;28;20163;-46
2022/12/31 11:13:14;;;;;;;1.27;0.93;;;17.30;99.90;;;;;;5051977;28;20638;-45
2022/12/31 11:15:48;;;;;;;0.68;0.68;;;17.30;99.90;;;;;;5052145;28;20249;-46
2022/12/31 11:18:19;;;;;;;2.05;1.65;;;17.30;99.90;;;;;;5051895;28;20769;-45
2022/12/31 11:21:13;;;;;;;1.15;0.77;;;17.30;99.90;;;;;;5051916;28;20170;-45
2022/12/31 11:24:02;;;;;;;2.70;1.20;;;17.30;99.90;;;;;;5048769;28;20218;-46
2022/12/31 11:26:48;;;;;;;1.83;1.13;;;17.40;99.90;;;;;;5051979;28;20515;-45
2022/12/31 11:29:41;;;;;;;3.95;1.20;;;17.50;99.90;;;;;;5051756;28;20171;-45
2022/12/31 11:32:13;;;;;;;2.33;1.20;;;17.40;99.90;;;;;;5051735;28;20618;-46
2022/12/31 11:34:47;;;;;;;5.40;1.50;;;17.30;99.90;;;;;;5051894;28;20230;-45
2022/12/31 11:37:35;;;;;;;5.10;1.65;;;17.30;99.90;;;;;;5051738;28;20170;-46
2022/12/31 11:40:27;;;;;;;4.57;1.10;;;17.30;99.90;;;;;;5051530;28;20170;-46
2022/12/31 11:43:10;;;;;;;2.10;1.13;;;17.30;99.90;;;;;;5051413;28;20174;-46
2022/12/31 11:46:01;;;;;;;3.42;1.25;;;17.30;99.90;;;;;;5051675;28;20187;-46
2022/12/31 11:48:51;;;;;;;3.00;1.13;;;17.40;99.90;;;;;;5051372;28;20174;-46
2022/12/31 11:51:34;;;;;;;1.65;1.20;;;17.30;99.90;;;;;;5051257;28;20245;-46
2022/12/31 11:54:28;;;;;;;3.10;1.65;;;17.30;99.90;;;;;;5050740;28;20170;-46
2022/12/31 11:57:23;;;;;;;2.47;1.55;;;17.30;99.90;;;;;;5051203;28;20385;-46
2022/12/31 11:59:54;;;;;;;4.55;1.35;;;17.30;99.90;;;;;;5051058;28;20537;-46
2022/12/31 12:02:24;;;;;;;2.35;1.30;;;17.30;99.90;;;;;;5050662;28;20222;-46
2022/12/31 12:04:51;;;;;;;3.92;1.23;;;17.30;99.90;;;;;;5050834;28;20210;-46
2022/12/31 12:07:17;;;;;;;3.88;1.30;;;17.50;99.90;;;;;;5050732;28;20202;-46
2022/12/31 12:09:44;;;;;;;2.33;1.58;;;17.40;99.90;;;;;;5050847;28;20642;-46
2022/12/31 12:12:10;;;;;;;2.08;1.02;;;17.40;99.90;;;;;;5051188;28;20261;-46
2022/12/31 12:14:38;;;;;;;3.85;1.20;;;17.60;99.90;;;;;;5051098;28;20171;-45
2022/12/31 12:17:11;;;;;;;4.60;1.25;;;17.50;99.90;;;;;;5051148;28;20220;-46
2022/12/31 12:19:43;;;;;;;6.03;1.27;;;17.50;99.90;;;;;;5050637;28;20216;-46
2022/12/31 12:22:12;;;;;;;2.40;1.40;;;17.50;99.90;;;;;;5050668;28;20183;-46
2022/12/31 12:24:37;;;;;;;6.88;1.60;;;17.60;99.90;;;;;;5050810;28;20206;-46
2022/12/31 12:27:03;;;;;;;7.00;1.40;;;17.60;99.90;;;;;;5051131;28;20174;-46
2022/12/31 12:29:33;;;;;;;5.03;1.50;;;17.60;99.90;;;;;;5050707;28;20175;-47
2022/12/31 12:32:03;;;;;;;6.13;1.35;;;17.60;99.90;;;;;;5050373;28;20182;-46
2022/12/31 12:34:30;;;;;;;4.55;1.45;;;17.60;99.90;;;;;;5050435;28;20661;-46
2022/12/31 12:36:56;;;;;;;7.13;1.88;;;17.60;99.90;;;;;;5050567;28;20178;-46
2022/12/31 12:39:27;;;;;;;2.85;1.42;;;17.60;99.90;;;;;;5050326;28;20170;-46
2022/12/31 12:42:09;;;;;;;3.22;1.08;;;17.50;99.90;;;;;;5050489;28;20166;-46
2022/12/31 12:44:34;;;;;;;3.53;1.45;;;17.60;99.90;;;;;;5050667;28;20279;-46
2022/12/31 12:47:03;;;;;;;1.63;1.40;;;17.50;99.90;;;;;;5050261;28;20629;-46
2022/12/31 12:49:38;;;;;;;2.35;1.27;;;14.50;99.90;;;;;;5049801;28;20253;-47
2022/12/31 12:52:41;;;;;;;3.00;1.30;;;17.60;99.90;;;;;;5048852;28;20673;-47
2022/12/31 12:55:45;;;;;;;1.13;0.95;;;17.60;99.90;;;;;;5050201;28;20716;-46
2022/12/31 12:58:32;;;;;;;2.83;1.20;;;17.60;99.90;;;;;;5050128;28;20170;-46
2022/12/31 13:01:17;;;;;;;5.65;1.63;;;17.50;99.90;;;;;;5050008;28;20170;-46
2022/12/31 13:04:19;;;;;;;4.10;1.23;;;17.50;99.90;;;;;;5049060;28;20232;-46
2022/12/31 13:07:15;;;;;;;12.10;1.55;;;17.50;99.90;;;;;;5049747;28;20170;-46
2022/12/31 13:09:53;;;;;;;2.55;1.63;;;17.40;99.90;;;;;;5049539;28;20171;-46
2022/12/31 13:12:50;;;;;;;3.53;1.35;;;17.30;99.90;;;;;;5049909;28;20170;-46
2022/12/31 13:15:32;;;;;;;4.10;1.30;;;17.20;99.90;;;;;;5044875;28;20577;-46
2022/12/31 13:18:16;;;;;;;4.68;1.50;;;17.10;99.90;;;;;;5049532;28;20159;-46
2022/12/31 13:21:14;;;;;;;4.45;1.58;;;16.90;99.90;;;;;;5048433;28;20170;-46
2022/12/31 13:23:54;;;;;;;5.55;1.45;;;16.80;99.90;;;;;;5049532;28;20305;-46
2022/12/31 13:26:42;;;;;;;4.50;1.65;;;16.70;99.90;;;;;;5049593;28;20257;-46
2022/12/31 13:29:16;;;;;;;3.92;1.70;;;16.60;99.90;;;;;;5048227;28;20171;-46
2022/12/31 13:31:42;;;;;;;3.00;1.40;;;16.50;99.90;;;;;;5049587;28;20166;-46
2022/12/31 13:34:22;;;;;;;2.35;1.50;;;16.40;99.90;;;;;;5049211;28;20656;-46